Pagina principale
METAR-TAF:

METAR-TAF

Aeroporti :

Memmingen, Germania

latitudine: 47-59-33N, longitudine: 10-14-37E, altezza: 633 m

Osservazione

Il bollettino è stato emesso 16 minuti fa, alle 10:50 UTC
Vento 12 kt da sud-ovest
Temperature 12°C
Umidità 76%
Pressione 1025 hPa
Visibilità 10 km o più
Nuvoloso ad un'altezza di 1600 ft
Nuvoloso ad un'altezza di 3100 ft

METAR: EDJA 261050Z 23012KT 9999 BKN016 BKN031 12/08 Q1025

Ora: 13:06 (11:06 UTC)

Previsione

Il bollettino è stato emesso 30 minuti fa, alle 10:36 UTC
Previsione valida dal 26 alle 10 UTC al 26 alle 18 UTC
Vento 6 kt da sud-ovest
Visibilità 10 km o più
Nuvoloso ad un'altezza di 2000 ft
Probabilità 30% :
Temporaneamente
dal 26 alle 10 UTC al 26 alle 12 UTC
Nuvoloso ad un'altezza di 1200 ft

TAF: EDJA 261036Z 2610/2618 23006KT 9999 BKN020 PROB30 TEMPO 2610/2612 BKN012

Osservazioni e previsioni meteorologiche di più di 4000 aeroporti (messaggi METAR e TAF).

Le stazioni disponibili sono rappresentate dai dischi gialli e rossi sulla carta.

Puntare il mouse per vedere il nome della stazione.

Clicca sopra per visualizzare le osservazioni e previsioni meteorologiche.

Per cambiare la mappa : fare clic sui pulsanti verdi con una croce nera per ingrandire, il pulsante verde con un trattino per diminuire, o sulla freccia verde per le mappe adiacenti.


METAR-TAF: